Time;durP1;ratioP1;P1;durP2;ratioP2;P2;SDS_P1;SDS_P2;PMS_P1;PMS_P2;Temp;Humidity;BMP_temperature;BMP_pressure;BME280_temperature;BME280_humidity;BME280_pressure;Samples;Min_cycle;Max_cycle;Signal;HPM_P1;HPM_P2
2022/05/26 00:01:00;;;;;;;2.2;2;;;;;;;10.69;99.62695;95804.77;;;;
2022/05/26 00:02:03;;;;;;;2.2;2;;;;;;;10.69;99.62695;95804.77;;;;
2022/05/26 00:03:04;;;;;;;2.2;2;;;;;;;10.69;99.62695;95804.77;;;;
2022/05/26 00:04:04;;;;;;;2.2;2;;;;;;;10.69;99.62695;95804.77;;;;
2022/05/26 00:05:05;;;;;;;2.2;2;;;;;;;10.69;99.62695;95804.77;;;;
2022/05/26 00:06:07;;;;;;;2.2;2;;;;;;;10.69;99.62695;95804.77;;;;
2022/05/26 00:07:09;;;;;;;2.05;1.9;;;;;;;10.67;99.87891;95793.08;;;;
2022/05/26 00:08:11;;;;;;;2.05;1.9;;;;;;;10.67;99.87891;95793.08;;;;
2022/05/26 00:09:11;;;;;;;2.05;1.9;;;;;;;10.67;99.87891;95793.08;;;;
2022/05/26 00:10:12;;;;;;;2.05;1.9;;;;;;;10.67;99.87891;95793.08;;;;
2022/05/26 00:11:13;;;;;;;2.05;1.9;;;;;;;10.67;99.87891;95793.08;;;;
2022/05/26 00:12:19;;;;;;;2.05;1.9;;;;;;;10.67;99.87891;95793.08;;;;
2022/05/26 00:13:19;;;;;;;2.05;1.9;;;;;;;10.67;99.87891;95793.08;;;;
2022/05/26 00:14:20;;;;;;;2.05;1.9;;;;;;;10.67;99.87891;95793.08;;;;
2022/05/26 00:15:21;;;;;;;2.05;1.9;;;;;;;10.67;99.87891;95793.08;;;;
2022/05/26 00:16:22;;;;;;;2.05;1.9;;;;;;;10.67;99.87891;95793.08;;;;
2022/05/26 00:17:23;;;;;;;2.05;1.9;;;;;;;10.67;99.87891;95793.08;;;;
2022/05/26 00:18:23;;;;;;;2.35;2.15;;;;;;;10.72;100;95796.44;;;;
2022/05/26 00:19:24;;;;;;;2.35;2.15;;;;;;;10.72;100;95796.44;;;;
2022/05/26 00:20:24;;;;;;;2.35;2.15;;;;;;;10.72;100;95796.44;;;;
2022/05/26 00:21:24;;;;;;;2.35;2.15;;;;;;;10.72;100;95796.44;;;;
2022/05/26 00:22:25;;;;;;;2.35;2.15;;;;;;;10.72;100;95796.44;;;;
2022/05/26 00:23:26;;;;;;;2.35;2.15;;;;;;;10.72;100;95796.44;;;;
2022/05/26 00:24:26;;;;;;;2.35;2.15;;;;;;;10.72;100;95796.44;;;;
2022/05/26 00:25:27;;;;;;;2.35;2.15;;;;;;;10.72;100;95796.44;;;;
2022/05/26 00:26:28;;;;;;;2.35;2.15;;;;;;;10.72;100;95796.44;;;;
2022/05/26 00:27:28;;;;;;;2.35;2.15;;;;;;;10.72;100;95796.44;;;;
2022/05/26 00:28:31;;;;;;;2.35;2.15;;;;;;;10.72;100;95796.44;;;;
2022/05/26 00:29:34;;;;;;;2.35;2.15;;;;;;;10.72;100;95796.44;;;;
2022/05/26 00:30:37;;;;;;;2.35;2.15;;;;;;;10.72;100;95796.44;;;;
2022/05/26 00:31:38;;;;;;;2.35;2.15;;;;;;;10.72;100;95796.44;;;;
2022/05/26 00:32:39;;;;;;;2.35;2.15;;;;;;;10.72;100;95796.44;;;;
2022/05/26 00:33:40;;;;;;;2.35;2.15;;;;;;;10.72;100;95796.44;;;;
2022/05/26 00:34:40;;;;;;;2.35;2.15;;;;;;;10.72;100;95796.44;;;;
2022/05/26 00:35:41;;;;;;;2.35;2.15;;;;;;;10.72;100;95796.44;;;;
2022/05/26 00:36:42;;;;;;;2.35;2.15;;;;;;;10.72;100;95796.44;;;;
2022/05/26 00:37:43;;;;;;;2.35;2.15;;;;;;;10.72;100;95796.44;;;;
2022/05/26 00:38:43;;;;;;;2.35;2.15;;;;;;;10.72;100;95796.44;;;;
2022/05/26 00:39:44;;;;;;;2.35;1.9;;;;;;;10.61;99.875;95808.92;;;;
2022/05/26 00:40:44;;;;;;;2.35;1.9;;;;;;;10.61;99.875;95808.92;;;;
2022/05/26 00:41:46;;;;;;;2.35;1.9;;;;;;;10.61;99.875;95808.92;;;;
2022/05/26 00:42:51;;;;;;;2.35;1.9;;;;;;;10.61;99.875;95808.92;;;;
2022/05/26 00:43:51;;;;;;;2.35;1.9;;;;;;;10.61;99.875;95808.92;;;;
2022/05/26 00:44:51;;;;;;;2.35;1.9;;;;;;;10.61;99.875;95808.92;;;;
2022/05/26 00:45:52;;;;;;;2.35;1.9;;;;;;;10.61;99.875;95808.92;;;;
2022/05/26 00:46:56;;;;;;;2.35;1.9;;;;;;;10.61;99.875;95808.92;;;;
2022/05/26 00:48:02;;;;;;;2.35;1.9;;;;;;;10.61;99.875;95808.92;;;;
2022/05/26 00:49:06;;;;;;;2.35;1.9;;;;;;;10.61;99.875;95808.92;;;;
2022/05/26 00:50:16;;;;;;;4.250001;2.5;;;;;;;10.5;99.44336;95801.57;;;;
2022/05/26 00:51:21;;;;;;;4.250001;2.5;;;;;;;10.5;99.44336;95801.57;;;;
2022/05/26 00:52:27;;;;;;;4.250001;2.5;;;;;;;10.5;99.44336;95801.57;;;;
2022/05/26 00:53:33;;;;;;;4.250001;2.5;;;;;;;10.5;99.44336;95801.57;;;;
2022/05/26 00:54:39;;;;;;;4.250001;2.5;;;;;;;10.5;99.44336;95801.57;;;;
2022/05/26 00:55:42;;;;;;;4.250001;2.5;;;;;;;10.5;99.44336;95801.57;;;;
2022/05/26 00:56:48;;;;;;;4.250001;2.5;;;;;;;10.5;99.44336;95801.57;;;;
2022/05/26 00:57:54;;;;;;;4.250001;2.5;;;;;;;10.5;99.44336;95801.57;;;;
2022/05/26 00:59:00;;;;;;;4.250001;2.5;;;;;;;10.5;99.44336;95801.57;;;;
2022/05/26 01:00:06;;;;;;;4.250001;2.5;;;;;;;10.5;99.44336;95801.57;;;;
2022/05/26 01:01:10;;;;;;;2.900001;2.2;;;;;;;10.41;99.16992;95798.69;;;;
2022/05/26 01:02:11;;;;;;;2.900001;2.2;;;;;;;10.41;99.16992;95798.69;;;;
2022/05/26 01:03:13;;;;;;;2.900001;2.2;;;;;;;10.41;99.16992;95798.69;;;;
2022/05/26 01:04:19;;;;;;;2.900001;2.2;;;;;;;10.41;99.16992;95798.69;;;;
2022/05/26 01:05:24;;;;;;;2.900001;2.2;;;;;;;10.41;99.16992;95798.69;;;;
2022/05/26 01:06:29;;;;;;;2.900001;2.2;;;;;;;10.41;99.16992;95798.69;;;;
2022/05/26 01:07:33;;;;;;;2.900001;2.2;;;;;;;10.41;99.16992;95798.69;;;;
2022/05/26 01:08:37;;;;;;;2.900001;2.2;;;;;;;10.41;99.16992;95798.69;;;;
2022/05/26 01:09:45;;;;;;;2.900001;2.2;;;;;;;10.41;99.16992;95798.69;;;;
2022/05/26 01:10:46;;;;;;;2.900001;2.2;;;;;;;10.41;99.16992;95798.69;;;;
2022/05/26 01:11:46;;;;;;;2.5;2.3;;;;;;;10.27;98.85938;95807.18;;;;
2022/05/26 01:12:47;;;;;;;2.5;2.3;;;;;;;10.27;98.85938;95807.18;;;;
2022/05/26 01:13:47;;;;;;;2.5;2.3;;;;;;;10.27;98.85938;95807.18;;;;
2022/05/26 01:14:54;;;;;;;2.5;2.3;;;;;;;10.27;98.85938;95807.18;;;;
2022/05/26 01:15:58;;;;;;;2.5;2.3;;;;;;;10.27;98.85938;95807.18;;;;
2022/05/26 01:17:08;;;;;;;2.5;2.3;;;;;;;10.27;98.85938;95807.18;;;;
2022/05/26 01:18:20;;;;;;;2.5;2.3;;;;;;;10.27;98.85938;95807.18;;;;
2022/05/26 01:19:30;;;;;;;2.5;2.3;;;;;;;10.27;98.85938;95807.18;;;;
2022/05/26 01:22:09;;;;;;;2.75;2.55;;;;;;;10.12;98.65625;95808.22;;;;
2022/05/26 01:23:24;;;;;;;2.75;2.55;;;;;;;10.12;98.65625;95808.22;;;;
2022/05/26 01:25:00;;;;;;;2.75;2.55;;;;;;;10.12;98.65625;95808.22;;;;
2022/05/26 01:26:19;;;;;;;2.75;2.55;;;;;;;10.12;98.65625;95808.22;;;;
2022/05/26 01:27:42;;;;;;;2.75;2.55;;;;;;;10.12;98.65625;95808.22;;;;
2022/05/26 01:28:44;;;;;;;2.75;2.55;;;;;;;10.12;98.65625;95808.22;;;;
2022/05/26 01:30:08;;;;;;;2.75;2.55;;;;;;;10.12;98.65625;95808.22;;;;
2022/05/26 01:31:36;;;;;;;2.75;2.55;;;;;;;10.12;98.65625;95808.22;;;;
2022/05/26 01:32:44;;;;;;;3.1;2.8;;;;;;;9.96;98.41602;95811.24;;;;
2022/05/26 01:34:02;;;;;;;3.1;2.8;;;;;;;9.96;98.41602;95811.24;;;;
2022/05/26 01:35:11;;;;;;;3.1;2.8;;;;;;;9.96;98.41602;95811.24;;;;
2022/05/26 01:36:18;;;;;;;3.1;2.8;;;;;;;9.96;98.41602;95811.24;;;;
2022/05/26 01:37:28;;;;;;;3.1;2.8;;;;;;;9.96;98.41602;95811.24;;;;
2022/05/26 01:38:40;;;;;;;3.1;2.8;;;;;;;9.96;98.41602;95811.24;;;;
2022/05/26 01:39:54;;;;;;;3.1;2.8;;;;;;;9.96;98.41602;95811.24;;;;
2022/05/26 01:41:00;;;;;;;3.1;2.8;;;;;;;9.96;98.41602;95811.24;;;;
2022/05/26 01:42:11;;;;;;;3.1;2.8;;;;;;;9.96;98.41602;95811.24;;;;
2022/05/26 01:43:21;;;;;;;2.8;2.6;;;;;;;9.78;98.25879;95824.45;;;;
2022/05/26 01:44:46;;;;;;;2.8;2.6;;;;;;;9.78;98.25879;95824.45;;;;
2022/05/26 01:45:53;;;;;;;2.8;2.6;;;;;;;9.78;98.25879;95824.45;;;;
2022/05/26 01:46:59;;;;;;;2.8;2.6;;;;;;;9.78;98.25879;95824.45;;;;
2022/05/26 01:48:06;;;;;;;2.8;2.6;;;;;;;9.78;98.25879;95824.45;;;;
2022/05/26 01:49:15;;;;;;;2.8;2.6;;;;;;;9.78;98.25879;95824.45;;;;
2022/05/26 01:50:26;;;;;;;2.8;2.6;;;;;;;9.78;98.25879;95824.45;;;;
2022/05/26 01:51:34;;;;;;;2.8;2.6;;;;;;;9.78;98.25879;95824.45;;;;
2022/05/26 01:52:40;;;;;;;2.8;2.6;;;;;;;9.78;98.25879;95824.45;;;;
2022/05/26 01:53:46;;;;;;;2.8;2.6;;;;;;;9.78;98.25879;95824.45;;;;
2022/05/26 01:54:59;;;;;;;2.85;2.65;;;;;;;9.6;98.29297;95834.69;;;;
2022/05/26 01:56:07;;;;;;;2.85;2.65;;;;;;;9.6;98.29297;95834.69;;;;
2022/05/26 01:57:15;;;;;;;2.85;2.65;;;;;;;9.6;98.29297;95834.69;;;;
2022/05/26 01:58:22;;;;;;;2.85;2.65;;;;;;;9.6;98.29297;95834.69;;;;
2022/05/26 01:59:29;;;;;;;2.85;2.65;;;;;;;9.6;98.29297;95834.69;;;;
2022/05/26 02:00:36;;;;;;;2.85;2.65;;;;;;;9.6;98.29297;95834.69;;;;
2022/05/26 02:01:37;;;;;;;2.85;2.65;;;;;;;9.6;98.29297;95834.69;;;;
2022/05/26 02:02:41;;;;;;;2.85;2.65;;;;;;;9.6;98.29297;95834.69;;;;
2022/05/26 02:03:47;;;;;;;2.85;2.65;;;;;;;9.6;98.29297;95834.69;;;;
2022/05/26 02:04:49;;;;;;;3.2;2.9;;;;;;;9.44;98.54492;95823.1;;;;
2022/05/26 02:05:54;;;;;;;3.2;2.9;;;;;;;9.44;98.54492;95823.1;;;;
2022/05/26 02:06:59;;;;;;;3.2;2.9;;;;;;;9.44;98.54492;95823.1;;;;
2022/05/26 02:08:17;;;;;;;3.2;2.9;;;;;;;9.44;98.54492;95823.1;;;;
2022/05/26 02:09:23;;;;;;;3.2;2.9;;;;;;;9.44;98.54492;95823.1;;;;
2022/05/26 02:10:28;;;;;;;3.2;2.9;;;;;;;9.44;98.54492;95823.1;;;;
2022/05/26 02:11:34;;;;;;;3.2;2.9;;;;;;;9.44;98.54492;95823.1;;;;
2022/05/26 02:12:40;;;;;;;3.2;2.9;;;;;;;9.44;98.54492;95823.1;;;;
2022/05/26 02:13:45;;;;;;;3.2;2.9;;;;;;;9.44;98.54492;95823.1;;;;
2022/05/26 02:14:51;;;;;;;3.2;2.9;;;;;;;9.44;98.54492;95823.1;;;;
2022/05/26 02:15:56;;;;;;;3.3;2.9;;;;;;;9.4;98.97363;95820.14;;;;
2022/05/26 02:17:00;;;;;;;3.3;2.9;;;;;;;9.4;98.97363;95820.14;;;;
2022/05/26 02:18:06;;;;;;;3.3;2.9;;;;;;;9.4;98.97363;95820.14;;;;
2022/05/26 02:19:13;;;;;;;3.3;2.9;;;;;;;9.4;98.97363;95820.14;;;;
2022/05/26 02:20:18;;;;;;;3.3;2.9;;;;;;;9.4;98.97363;95820.14;;;;
2022/05/26 02:21:24;;;;;;;3.3;2.9;;;;;;;9.4;98.97363;95820.14;;;;
2022/05/26 02:22:31;;;;;;;3.3;2.9;;;;;;;9.4;98.97363;95820.14;;;;
2022/05/26 02:23:37;;;;;;;3.3;2.9;;;;;;;9.4;98.97363;95820.14;;;;
2022/05/26 02:24:43;;;;;;;3.3;2.9;;;;;;;9.4;98.97363;95820.14;;;;
2022/05/26 02:25:48;;;;;;;3.3;2.9;;;;;;;9.4;98.97363;95820.14;;;;
2022/05/26 02:26:48;;;;;;;3.6;3.1;;;;;;;9.28;98.92285;95822.55;;;;
2022/05/26 02:27:49;;;;;;;3.6;3.1;;;;;;;9.28;98.92285;95822.55;;;;
2022/05/26 02:30:00;;;;;;;3.6;3.1;;;;;;;9.28;98.92285;95822.55;;;;
2022/05/26 02:31:04;;;;;;;3.6;3.1;;;;;;;9.28;98.92285;95822.55;;;;
2022/05/26 02:32:05;;;;;;;3.6;3.1;;;;;;;9.28;98.92285;95822.55;;;;
2022/05/26 02:33:07;;;;;;;3.6;3.1;;;;;;;9.28;98.92285;95822.55;;;;
2022/05/26 02:34:10;;;;;;;3.6;3.1;;;;;;;9.28;98.92285;95822.55;;;;
2022/05/26 02:35:13;;;;;;;3.6;3.1;;;;;;;9.28;98.92285;95822.55;;;;
2022/05/26 02:36:17;;;;;;;3.6;3.1;;;;;;;9.28;98.92285;95822.55;;;;
2022/05/26 02:37:17;;;;;;;3.25;3.05;;;;;;;9.13;98.79492;95825.68;;;;
2022/05/26 02:38:22;;;;;;;3.25;3.05;;;;;;;9.13;98.79492;95825.68;;;;
2022/05/26 02:39:23;;;;;;;3.25;3.05;;;;;;;9.13;98.79492;95825.68;;;;
2022/05/26 02:40:24;;;;;;;3.25;3.05;;;;;;;9.13;98.79492;95825.68;;;;
2022/05/26 02:41:24;;;;;;;3.25;3.05;;;;;;;9.13;98.79492;95825.68;;;;
2022/05/26 02:42:25;;;;;;;3.25;3.05;;;;;;;9.13;98.79492;95825.68;;;;
2022/05/26 02:43:28;;;;;;;3.25;3.05;;;;;;;9.13;98.79492;95825.68;;;;
2022/05/26 02:44:31;;;;;;;3.25;3.05;;;;;;;9.13;98.79492;95825.68;;;;
2022/05/26 02:45:33;;;;;;;3.25;3.05;;;;;;;9.13;98.79492;95825.68;;;;
2022/05/26 02:46:45;;;;;;;3.25;3.05;;;;;;;9.13;98.79492;95825.68;;;;
2022/05/26 02:47:57;;;;;;;3.75;3.15;;;;;;;9;98.79492;95819.46;;;;
2022/05/26 02:49:06;;;;;;;3.75;3.15;;;;;;;9;98.79492;95819.46;;;;
2022/05/26 02:50:20;;;;;;;3.75;3.15;;;;;;;9;98.79492;95819.46;;;;
2022/05/26 02:51:37;;;;;;;3.75;3.15;;;;;;;9;98.79492;95819.46;;;;
2022/05/26 02:52:42;;;;;;;3.75;3.15;;;;;;;9;98.79492;95819.46;;;;
2022/05/26 02:53:53;;;;;;;3.75;3.15;;;;;;;9;98.79492;95819.46;;;;
2022/05/26 02:55:05;;;;;;;3.75;3.15;;;;;;;9;98.79492;95819.46;;;;
2022/05/26 02:56:17;;;;;;;3.75;3.15;;;;;;;9;98.79492;95819.46;;;;
2022/05/26 02:57:30;;;;;;;3.75;3.15;;;;;;;9;98.79492;95819.46;;;;
2022/05/26 02:58:38;;;;;;;4.3;3.45;;;;;;;8.92;98.94824;95837.62;;;;
2022/05/26 02:59:48;;;;;;;4.3;3.45;;;;;;;8.92;98.94824;95837.62;;;;
2022/05/26 03:00:59;;;;;;;4.3;3.45;;;;;;;8.92;98.94824;95837.62;;;;
2022/05/26 03:02:07;;;;;;;4.3;3.45;;;;;;;8.92;98.94824;95837.62;;;;
2022/05/26 03:03:14;;;;;;;4.3;3.45;;;;;;;8.92;98.94824;95837.62;;;;
2022/05/26 03:04:22;;;;;;;4.3;3.45;;;;;;;8.92;98.94824;95837.62;;;;
2022/05/26 03:05:28;;;;;;;4.3;3.45;;;;;;;8.92;98.94824;95837.62;;;;
2022/05/26 03:06:34;;;;;;;4.3;3.45;;;;;;;8.92;98.94824;95837.62;;;;
2022/05/26 03:07:40;;;;;;;4.3;3.45;;;;;;;8.92;98.94824;95837.62;;;;
2022/05/26 03:08:44;;;;;;;3.65;3.2;;;;;;;8.88;99.17383;95833.64;;;;
2022/05/26 03:09:46;;;;;;;3.65;3.2;;;;;;;8.88;99.17383;95833.64;;;;
2022/05/26 03:10:46;;;;;;;3.65;3.2;;;;;;;8.88;99.17383;95833.64;;;;
2022/05/26 03:11:49;;;;;;;3.65;3.2;;;;;;;8.88;99.17383;95833.64;;;;
2022/05/26 03:12:53;;;;;;;3.65;3.2;;;;;;;8.88;99.17383;95833.64;;;;
2022/05/26 03:13:54;;;;;;;3.65;3.2;;;;;;;8.88;99.17383;95833.64;;;;
2022/05/26 03:14:55;;;;;;;3.65;3.2;;;;;;;8.88;99.17383;95833.64;;;;
2022/05/26 03:15:56;;;;;;;3.65;3.2;;;;;;;8.88;99.17383;95833.64;;;;
2022/05/26 03:16:56;;;;;;;3.65;3.2;;;;;;;8.88;99.17383;95833.64;;;;
2022/05/26 03:17:57;;;;;;;3.65;3.2;;;;;;;8.88;99.17383;95833.64;;;;
2022/05/26 03:19:00;;;;;;;3.65;3.2;;;;;;;8.88;99.17383;95833.64;;;;
2022/05/26 03:20:00;;;;;;;3.35;3.05;;;;;;;8.88;99.28027;95845.62;;;;
2022/05/26 03:21:02;;;;;;;3.35;3.05;;;;;;;8.88;99.28027;95845.62;;;;
2022/05/26 03:22:05;;;;;;;3.35;3.05;;;;;;;8.88;99.28027;95845.62;;;;
2022/05/26 03:23:05;;;;;;;3.35;3.05;;;;;;;8.88;99.28027;95845.62;;;;
2022/05/26 03:24:06;;;;;;;3.35;3.05;;;;;;;8.88;99.28027;95845.62;;;;
2022/05/26 03:25:07;;;;;;;3.35;3.05;;;;;;;8.88;99.28027;95845.62;;;;
2022/05/26 03:26:08;;;;;;;3.35;3.05;;;;;;;8.88;99.28027;95845.62;;;;
2022/05/26 03:27:09;;;;;;;3.35;3.05;;;;;;;8.88;99.28027;95845.62;;;;
2022/05/26 03:28:11;;;;;;;3.35;3.05;;;;;;;8.88;99.28027;95845.62;;;;
2022/05/26 03:29:11;;;;;;;3.35;3.05;;;;;;;8.88;99.28027;95845.62;;;;
2022/05/26 03:30:12;;;;;;;3.35;3.1;;;;;;;9.07;99.95313;95848.86;;;;
2022/05/26 03:31:13;;;;;;;3.35;3.1;;;;;;;9.07;99.95313;95848.86;;;;
2022/05/26 03:32:13;;;;;;;3.35;3.1;;;;;;;9.07;99.95313;95848.86;;;;
2022/05/26 03:33:14;;;;;;;3.35;3.1;;;;;;;9.07;99.95313;95848.86;;;;
2022/05/26 03:44:42;;;;;;;3.15;2.900001;;;;;;;9.12;100;95861.89;;;;
2022/05/26 03:45:43;;;;;;;3.15;2.900001;;;;;;;9.12;100;95861.89;;;;
2022/05/26 03:46:44;;;;;;;3.15;2.900001;;;;;;;9.12;100;95861.89;;;;
2022/05/26 03:47:45;;;;;;;3.15;2.900001;;;;;;;9.12;100;95861.89;;;;
2022/05/26 03:48:46;;;;;;;3.15;2.900001;;;;;;;9.12;100;95861.89;;;;
2022/05/26 03:49:46;;;;;;;3.15;2.900001;;;;;;;9.12;100;95861.89;;;;
2022/05/26 03:50:47;;;;;;;3.15;2.900001;;;;;;;9.12;100;95861.89;;;;
2022/05/26 03:51:48;;;;;;;5;2.75;;;;;;;9.22;100;95877.39;;;;
2022/05/26 03:52:51;;;;;;;5;2.75;;;;;;;9.22;100;95877.39;;;;
2022/05/26 03:53:51;;;;;;;5;2.75;;;;;;;9.22;100;95877.39;;;;
2022/05/26 03:54:52;;;;;;;5;2.75;;;;;;;9.22;100;95877.39;;;;
2022/05/26 03:55:52;;;;;;;5;2.75;;;;;;;9.22;100;95877.39;;;;
2022/05/26 03:56:53;;;;;;;5;2.75;;;;;;;9.22;100;95877.39;;;;
2022/05/26 03:57:53;;;;;;;5;2.75;;;;;;;9.22;100;95877.39;;;;
2022/05/26 03:58:54;;;;;;;5;2.75;;;;;;;9.22;100;95877.39;;;;
2022/05/26 03:59:55;;;;;;;5;2.75;;;;;;;9.22;100;95877.39;;;;
2022/05/26 04:00:56;;;;;;;5;2.75;;;;;;;9.22;100;95877.39;;;;
2022/05/26 04:02:00;;;;;;;5;2.75;;;;;;;9.22;100;95877.39;;;;
2022/05/26 04:03:01;;;;;;;3.2;2.900001;;;;;;;9.41;100;95892.08;;;;
2022/05/26 04:04:01;;;;;;;3.2;2.900001;;;;;;;9.41;100;95892.08;;;;
2022/05/26 04:05:02;;;;;;;3.2;2.900001;;;;;;;9.41;100;95892.08;;;;
2022/05/26 04:06:03;;;;;;;3.2;2.900001;;;;;;;9.41;100;95892.08;;;;
2022/05/26 04:07:04;;;;;;;3.2;2.900001;;;;;;;9.41;100;95892.08;;;;
2022/05/26 04:08:04;;;;;;;3.2;2.900001;;;;;;;9.41;100;95892.08;;;;
2022/05/26 04:09:05;;;;;;;3.2;2.900001;;;;;;;9.41;100;95892.08;;;;
2022/05/26 04:10:06;;;;;;;3.2;2.900001;;;;;;;9.41;100;95892.08;;;;
2022/05/26 04:11:10;;;;;;;3.2;2.900001;;;;;;;9.41;100;95892.08;;;;
2022/05/26 04:12:11;;;;;;;3.2;2.900001;;;;;;;9.41;100;95892.08;;;;
2022/05/26 04:13:13;;;;;;;3.400001;3.1;;;;;;;9.74;100;95903.72;;;;
2022/05/26 04:14:14;;;;;;;3.400001;3.1;;;;;;;9.74;100;95903.72;;;;
2022/05/26 04:15:15;;;;;;;3.400001;3.1;;;;;;;9.74;100;95903.72;;;;
2022/05/26 04:16:17;;;;;;;3.400001;3.1;;;;;;;9.74;100;95903.72;;;;
2022/05/26 04:17:18;;;;;;;3.400001;3.1;;;;;;;9.74;100;95903.72;;;;
2022/05/26 04:18:18;;;;;;;3.400001;3.1;;;;;;;9.74;100;95903.72;;;;
2022/05/26 04:19:19;;;;;;;3.400001;3.1;;;;;;;9.74;100;95903.72;;;;
2022/05/26 04:20:19;;;;;;;3.400001;3.1;;;;;;;9.74;100;95903.72;;;;
2022/05/26 04:21:22;;;;;;;3.400001;3.1;;;;;;;9.74;100;95903.72;;;;
2022/05/26 04:22:23;;;;;;;3.400001;3.1;;;;;;;9.74;100;95903.72;;;;
2022/05/26 04:23:23;;;;;;;3.400001;3.1;;;;;;;9.74;100;95903.72;;;;
2022/05/26 04:24:24;;;;;;;3;2.55;;;;;;;10.19;100;95913.93;;;;
2022/05/26 04:25:25;;;;;;;3;2.55;;;;;;;10.19;100;95913.93;;;;
2022/05/26 04:26:26;;;;;;;3;2.55;;;;;;;10.19;100;95913.93;;;;
2022/05/26 04:27:27;;;;;;;3;2.55;;;;;;;10.19;100;95913.93;;;;
2022/05/26 04:28:30;;;;;;;3;2.55;;;;;;;10.19;100;95913.93;;;;
2022/05/26 04:29:31;;;;;;;3;2.55;;;;;;;10.19;100;95913.93;;;;
2022/05/26 04:30:33;;;;;;;3;2.55;;;;;;;10.19;100;95913.93;;;;
2022/05/26 04:31:33;;;;;;;3;2.55;;;;;;;10.19;100;95913.93;;;;
2022/05/26 04:32:34;;;;;;;3;2.55;;;;;;;10.19;100;95913.93;;;;
2022/05/26 04:33:35;;;;;;;3;2.55;;;;;;;10.19;100;95913.93;;;;
2022/05/26 04:34:35;;;;;;;3.05;2.7;;;;;;;10.56;100;95920.62;;;;
2022/05/26 04:35:36;;;;;;;3.05;2.7;;;;;;;10.56;100;95920.62;;;;
2022/05/26 04:36:36;;;;;;;3.05;2.7;;;;;;;10.56;100;95920.62;;;;
2022/05/26 04:37:37;;;;;;;3.05;2.7;;;;;;;10.56;100;95920.62;;;;
2022/05/26 04:38:39;;;;;;;3.05;2.7;;;;;;;10.56;100;95920.62;;;;
2022/05/26 04:39:39;;;;;;;3.05;2.7;;;;;;;10.56;100;95920.62;;;;
2022/05/26 04:40:40;;;;;;;3.05;2.7;;;;;;;10.56;100;95920.62;;;;
2022/05/26 04:41:41;;;;;;;3.05;2.7;;;;;;;10.56;100;95920.62;;;;
2022/05/26 04:42:42;;;;;;;3.05;2.7;;;;;;;10.56;100;95920.62;;;;
2022/05/26 04:43:43;;;;;;;3.05;2.7;;;;;;;10.56;100;95920.62;;;;
2022/05/26 04:44:43;;;;;;;3.05;2.7;;;;;;;10.56;100;95920.62;;;;
2022/05/26 04:45:44;;;;;;;4.1;2.6;;;;;;;11.1;100;95926.76;;;;
2022/05/26 04:46:45;;;;;;;4.1;2.6;;;;;;;11.1;100;95926.76;;;;
2022/05/26 04:47:46;;;;;;;4.1;2.6;;;;;;;11.1;100;95926.76;;;;
2022/05/26 04:48:46;;;;;;;4.1;2.6;;;;;;;11.1;100;95926.76;;;;
2022/05/26 04:49:46;;;;;;;4.1;2.6;;;;;;;11.1;100;95926.76;;;;
2022/05/26 04:50:47;;;;;;;4.1;2.6;;;;;;;11.1;100;95926.76;;;;
2022/05/26 04:51:49;;;;;;;4.1;2.6;;;;;;;11.1;100;95926.76;;;;
2022/05/26 04:52:49;;;;;;;4.1;2.6;;;;;;;11.1;100;95926.76;;;;
2022/05/26 04:53:50;;;;;;;4.1;2.6;;;;;;;11.1;100;95926.76;;;;
2022/05/26 04:54:52;;;;;;;4.1;2.6;;;;;;;11.1;100;95926.76;;;;
2022/05/26 04:55:53;;;;;;;2.25;2.15;;;;;;;11.78;100;95933.54;;;;
2022/05/26 04:56:55;;;;;;;2.25;2.15;;;;;;;11.78;100;95933.54;;;;
2022/05/26 04:57:56;;;;;;;2.25;2.15;;;;;;;11.78;100;95933.54;;;;
2022/05/26 04:58:57;;;;;;;2.25;2.15;;;;;;;11.78;100;95933.54;;;;
2022/05/26 04:59:58;;;;;;;2.25;2.15;;;;;;;11.78;100;95933.54;;;;
2022/05/26 05:00:58;;;;;;;2.25;2.15;;;;;;;11.78;100;95933.54;;;;
2022/05/26 05:02:00;;;;;;;2.25;2.15;;;;;;;11.78;100;95933.54;;;;
2022/05/26 05:03:01;;;;;;;2.25;2.15;;;;;;;11.78;100;95933.54;;;;
2022/05/26 05:04:02;;;;;;;2.25;2.15;;;;;;;11.78;100;95933.54;;;;
2022/05/26 05:05:02;;;;;;;2.25;2.15;;;;;;;11.78;100;95933.54;;;;
2022/05/26 05:06:04;;;;;;;2.25;2.15;;;;;;;11.78;100;95933.54;;;;
2022/05/26 05:07:05;;;;;;;1.95;1.8;;;;;;;12.37;100;95939.61;;;;
2022/05/26 05:08:05;;;;;;;1.95;1.8;;;;;;;12.37;100;95939.61;;;;
2022/05/26 05:09:06;;;;;;;1.95;1.8;;;;;;;12.37;100;95939.61;;;;
2022/05/26 05:10:07;;;;;;;1.95;1.8;;;;;;;12.37;100;95939.61;;;;
2022/05/26 05:11:08;;;;;;;1.95;1.8;;;;;;;12.37;100;95939.61;;;;
2022/05/26 05:12:10;;;;;;;1.95;1.8;;;;;;;12.37;100;95939.61;;;;
2022/05/26 05:13:13;;;;;;;1.95;1.8;;;;;;;12.37;100;95939.61;;;;
2022/05/26 05:14:14;;;;;;;1.95;1.8;;;;;;;12.37;100;95939.61;;;;
2022/05/26 05:15:15;;;;;;;1.95;1.8;;;;;;;12.37;100;95939.61;;;;
2022/05/26 05:16:24;;;;;;;1.95;1.8;;;;;;;12.37;100;95939.61;;;;
2022/05/26 05:17:27;;;;;;;1.7;1.6;;;;;;;12.78;100;95942.38;;;;
2022/05/26 05:18:27;;;;;;;1.7;1.6;;;;;;;12.78;100;95942.38;;;;
2022/05/26 05:19:28;;;;;;;1.7;1.6;;;;;;;12.78;100;95942.38;;;;
2022/05/26 05:20:28;;;;;;;1.7;1.6;;;;;;;12.78;100;95942.38;;;;
2022/05/26 05:21:29;;;;;;;1.7;1.6;;;;;;;12.78;100;95942.38;;;;
2022/05/26 05:22:34;;;;;;;1.7;1.6;;;;;;;12.78;100;95942.38;;;;
2022/05/26 05:23:39;;;;;;;1.7;1.6;;;;;;;12.78;100;95942.38;;;;
2022/05/26 05:24:43;;;;;;;1.7;1.6;;;;;;;12.78;100;95942.38;;;;
2022/05/26 05:25:51;;;;;;;1.7;1.6;;;;;;;12.78;100;95942.38;;;;
2022/05/26 05:26:53;;;;;;;1.7;1.6;;;;;;;12.78;100;95942.38;;;;
2022/05/26 05:28:00;;;;;;;1.7;1.6;;;;;;;13.3;100;95945.76;;;;
2022/05/26 05:29:04;;;;;;;1.7;1.6;;;;;;;13.3;100;95945.76;;;;
2022/05/26 05:30:10;;;;;;;1.7;1.6;;;;;;;13.3;100;95945.76;;;;
2022/05/26 05:31:14;;;;;;;1.7;1.6;;;;;;;13.3;100;95945.76;;;;
2022/05/26 05:32:18;;;;;;;1.7;1.6;;;;;;;13.3;100;95945.76;;;;
2022/05/26 05:33:23;;;;;;;1.7;1.6;;;;;;;13.3;100;95945.76;;;;
2022/05/26 05:34:28;;;;;;;1.7;1.6;;;;;;;13.3;100;95945.76;;;;
2022/05/26 05:35:33;;;;;;;1.7;1.6;;;;;;;13.3;100;95945.76;;;;
2022/05/26 05:36:40;;;;;;;1.7;1.6;;;;;;;13.3;100;95945.76;;;;
2022/05/26 05:37:40;;;;;;;0;0;;;;;;;0;0;0;;;;
2022/05/26 05:38:43;;;;;;;0;0;;;;;;;0;0;0;;;;
2022/05/26 05:39:43;;;;;;;0;0;;;;;;;0;0;0;;;;
2022/05/26 05:40:44;;;;;;;0;0;;;;;;;0;0;0;;;;
2022/05/26 05:41:46;;;;;;;0;0;;;;;;;0;0;0;;;;
2022/05/26 05:42:47;;;;;;;0;0;;;;;;;0;0;0;;;;
2022/05/26 05:43:48;;;;;;;0;0;;;;;;;0;0;0;;;;
2022/05/26 05:44:49;;;;;;;0;0;;;;;;;0;0;0;;;;
2022/05/26 05:45:50;;;;;;;0;0;;;;;;;0;0;0;;;;
2022/05/26 05:46:53;;;;;;;0;0;;;;;;;0;0;0;;;;
2022/05/26 05:47:54;;;;;;;0;0;;;;;;;0;0;0;;;;
2022/05/26 05:48:54;;;;;;;0;0;;;;;;;0;0;0;;;;
2022/05/26 05:49:55;;;;;;;0;0;;;;;;;0;0;0;;;;
2022/05/26 05:50:55;;;;;;;0;0;;;;;;;0;0;0;;;;
2022/05/26 05:51:56;;;;;;;0;0;;;;;;;0;0;0;;;;
2022/05/26 05:53:04;;;;;;;0;0;;;;;;;0;0;0;;;;
2022/05/26 05:54:05;;;;;;;0;0;;;;;;;0;0;0;;;;
2022/05/26 05:55:05;;;;;;;0;0;;;;;;;0;0;0;;;;
2022/05/26 05:56:07;;;;;;;0;0;;;;;;;0;0;0;;;;
2022/05/26 05:57:07;;;;;;;0;0;;;;;;;0;0;0;;;;
2022/05/26 05:58:09;;;;;;;0;0;;;;;;;0;0;0;;;;
2022/05/26 05:59:10;;;;;;;1.4;1.3;;;;;;;0;0;0;;;;
2022/05/26 06:00:11;;;;;;;1.4;1.3;;;;;;;0;0;0;;;;
2022/05/26 06:01:12;;;;;;;1.4;1.3;;;;;;;0;0;0;;;;
2022/05/26 06:02:13;;;;;;;1.4;1.3;;;;;;;0;0;0;;;;
2022/05/26 06:03:13;;;;;;;1.4;1.3;;;;;;;0;0;0;;;;
2022/05/26 06:04:14;;;;;;;1.4;1.3;;;;;;;0;0;0;;;;
2022/05/26 06:05:14;;;;;;;1.4;1.3;;;;;;;0;0;0;;;;
2022/05/26 06:06:15;;;;;;;1.4;1.3;;;;;;;0;0;0;;;;
2022/05/26 06:07:15;;;;;;;1.4;1.3;;;;;;;0;0;0;;;;
2022/05/26 06:08:18;;;;;;;1.4;1.3;;;;;;;0;0;0;;;;
2022/05/26 06:09:20;;;;;;;0;0;;;;;;;0;0;0;;;;
2022/05/26 06:10:21;;;;;;;0;0;;;;;;;0;0;0;;;;
2022/05/26 06:11:22;;;;;;;0;0;;;;;;;0;0;0;;;;
2022/05/26 06:12:22;;;;;;;0;0;;;;;;;0;0;0;;;;
2022/05/26 06:13:23;;;;;;;0;0;;;;;;;0;0;0;;;;
2022/05/26 06:14:23;;;;;;;0;0;;;;;;;0;0;0;;;;
2022/05/26 06:15:24;;;;;;;0;0;;;;;;;0;0;0;;;;
2022/05/26 06:16:25;;;;;;;0;0;;;;;;;0;0;0;;;;
2022/05/26 06:17:27;;;;;;;0;0;;;;;;;0;0;0;;;;
2022/05/26 06:18:28;;;;;;;0;0;;;;;;;0;0;0;;;;
2022/05/26 06:19:28;;;;;;;0;0;;;;;;;0;0;0;;;;
2022/05/26 06:20:29;;;;;;;0;0;;;;;;;0;0;0;;;;
2022/05/26 06:21:29;;;;;;;0;0;;;;;;;0;0;0;;;;
2022/05/26 06:22:30;;;;;;;0;0;;;;;;;0;0;0;;;;
2022/05/26 06:23:31;;;;;;;0;0;;;;;;;0;0;0;;;;
2022/05/26 06:24:32;;;;;;;0;0;;;;;;;0;0;0;;;;
2022/05/26 06:25:33;;;;;;;0;0;;;;;;;0;0;0;;;;
2022/05/26 06:26:33;;;;;;;0;0;;;;;;;0;0;0;;;;
2022/05/26 06:37:56;;;;;;;0;0;;;;;;;0;0;0;;;;
2022/05/26 06:38:56;;;;;;;0;0;;;;;;;0;0;0;;;;
2022/05/26 06:39:57;;;;;;;0;0;;;;;;;0;0;0;;;;
2022/05/26 06:42:05;;;;;;;0;0;;;;;;;0;0;0;;;;
2022/05/26 06:43:07;;;;;;;0;0;;;;;;;0;0;0;;;;
2022/05/26 06:44:08;;;;;;;0;0;;;;;;;0;0;0;;;;
2022/05/26 06:45:09;;;;;;;0;0;;;;;;;0;0;0;;;;
2022/05/26 06:46:10;;;;;;;0;0;;;;;;;0;0;0;;;;
2022/05/26 06:47:10;;;;;;;0;0;;;;;;;0;0;0;;;;
2022/05/26 06:48:13;;;;;;;0;0;;;;;;;0;0;0;;;;
2022/05/26 06:49:15;;;;;;;0;0;;;;;;;0;0;0;;;;
2022/05/26 06:50:16;;;;;;;0;0;;;;;;;0;0;0;;;;
2022/05/26 06:51:16;;;;;;;0;0;;;;;;;0;0;0;;;;
2022/05/26 06:52:17;;;;;;;0;0;;;;;;;0;0;0;;;;
2022/05/26 06:53:21;;;;;;;0;0;;;;;;;0;0;0;;;;
2022/05/26 06:54:22;;;;;;;0;0;;;;;;;0;0;0;;;;
2022/05/26 06:55:22;;;;;;;0;0;;;;;;;0;0;0;;;;
2022/05/26 06:56:24;;;;;;;0;0;;;;;;;0;0;0;;;;
2022/05/26 06:57:24;;;;;;;0;0;;;;;;;0;0;0;;;;
2022/05/26 06:58:26;;;;;;;0;0;;;;;;;0;0;0;;;;
2022/05/26 06:59:26;;;;;;;0;0;;;;;;;0;0;0;;;;
2022/05/26 07:00:27;;;;;;;0;0;;;;;;;0;0;0;;;;
2022/05/26 07:01:27;;;;;;;0;0;;;;;;;0;0;0;;;;
2022/05/26 07:02:28;;;;;;;0;0;;;;;;;0;0;0;;;;
2022/05/26 07:03:29;;;;;;;0;0;;;;;;;0;0;0;;;;
2022/05/26 07:04:29;;;;;;;0;0;;;;;;;0;0;0;;;;
2022/05/26 07:05:30;;;;;;;0;0;;;;;;;0;0;0;;;;
2022/05/26 07:06:34;;;;;;;0;0;;;;;;;0;0;0;;;;